sensor_id;sensor_type;location;lat;lon;timestamp;pressure;altitude;pressure_sealevel;temperature
70123;BMP280;57489;37.404;24.920;2024-02-21T00:03:56;100958.28;;;18.27
70123;BMP280;57489;37.404;24.920;2024-02-21T00:08:58;100947.13;;;18.25
70123;BMP280;57489;37.404;24.920;2024-02-21T00:14:02;100941.63;;;18.21
70123;BMP280;57489;37.404;24.920;2024-02-21T00:19:04;100953.88;;;18.17
70123;BMP280;57489;37.404;24.920;2024-02-21T00:24:06;100951.53;;;18.16
70123;BMP280;57489;37.404;24.920;2024-02-21T00:29:10;100939.88;;;18.12
70123;BMP280;57489;37.404;24.920;2024-02-21T00:34:12;100939.38;;;18.10
70123;BMP280;57489;37.404;24.920;2024-02-21T00:39:14;100946.84;;;18.07
70123;BMP280;57489;37.404;24.920;2024-02-21T00:44:17;100942.91;;;18.05
70123;BMP280;57489;37.404;24.920;2024-02-21T00:49:19;100944.25;;;18.02
70123;BMP280;57489;37.404;24.920;2024-02-21T00:54:21;100936.56;;;18.01
70123;BMP280;57489;37.404;24.920;2024-02-21T00:59:25;100932.63;;;17.98
70123;BMP280;57489;37.404;24.920;2024-02-21T01:04:27;100934.78;;;17.96
70123;BMP280;57489;37.404;24.920;2024-02-21T01:09:29;100934.53;;;17.93
70123;BMP280;57489;37.404;24.920;2024-02-21T01:14:33;100935.91;;;17.90
70123;BMP280;57489;37.404;24.920;2024-02-21T01:19:35;100924.28;;;17.86
70123;BMP280;57489;37.404;24.920;2024-02-21T01:24:37;100919.53;;;17.83
70123;BMP280;57489;37.404;24.920;2024-02-21T01:29:40;100923.25;;;17.82
70123;BMP280;57489;37.404;24.920;2024-02-21T01:34:42;100923.25;;;17.82
70123;BMP280;57489;37.404;24.920;2024-02-21T01:39:44;100915.88;;;17.79
70123;BMP280;57489;37.404;24.920;2024-02-21T01:44:47;100914.56;;;17.76
70123;BMP280;57489;37.404;24.920;2024-02-21T01:49:49;100914.09;;;17.74
70123;BMP280;57489;37.404;24.920;2024-02-21T01:54:52;100909.81;;;17.73
70123;BMP280;57489;37.404;24.920;2024-02-21T01:59:55;100912.78;;;17.72
70123;BMP280;57489;37.404;24.920;2024-02-21T02:04:57;100920.25;;;17.70
70123;BMP280;57489;37.404;24.920;2024-02-21T02:09:59;100912.53;;;17.68
70123;BMP280;57489;37.404;24.920;2024-02-21T02:15:03;100909.09;;;17.68
70123;BMP280;57489;37.404;24.920;2024-02-21T02:20:07;100911.25;;;17.66
70123;BMP280;57489;37.404;24.920;2024-02-21T02:25:10;100911.50;;;17.64
70123;BMP280;57489;37.404;24.920;2024-02-21T02:30:32;100921.94;;;17.61
70123;BMP280;57489;37.404;24.920;2024-02-21T02:47:41;100917.75;;;17.54
70123;BMP280;57489;37.404;24.920;2024-02-21T02:52:43;100921.47;;;17.53
70123;BMP280;57489;37.404;24.920;2024-02-21T02:57:45;100919.88;;;17.52
70123;BMP280;57489;37.404;24.920;2024-02-21T03:02:49;100920.44;;;17.49
70123;BMP280;57489;37.404;24.920;2024-02-21T03:07:51;100917.28;;;17.47
70123;BMP280;57489;37.404;24.920;2024-02-21T03:12:53;100918.88;;;17.48
70123;BMP280;57489;37.404;24.920;2024-02-21T03:17:56;100914.13;;;17.45
70123;BMP280;57489;37.404;24.920;2024-02-21T03:22:58;100919.44;;;17.45
70123;BMP280;57489;37.404;24.920;2024-02-21T03:28:00;100917.84;;;17.44
70123;BMP280;57489;37.404;24.920;2024-02-21T03:33:05;100912.00;;;17.42
70123;BMP280;57489;37.404;24.920;2024-02-21T03:38:07;100914.19;;;17.40
70123;BMP280;57489;37.404;24.920;2024-02-21T03:43:09;100909.94;;;17.39
70123;BMP280;57489;37.404;24.920;2024-02-21T03:48:12;100910.53;;;17.36
70123;BMP280;57489;37.404;24.920;2024-02-21T03:53:14;100911.28;;;17.37
70123;BMP280;57489;37.404;24.920;2024-02-21T03:58:16;100917.16;;;17.34
70123;BMP280;57489;37.404;24.920;2024-02-21T04:03:20;100916.38;;;17.33
70123;BMP280;57489;37.404;24.920;2024-02-21T04:08:22;100915.09;;;17.31
70123;BMP280;57489;37.404;24.920;2024-02-21T04:13:24;100924.09;;;17.29
70123;BMP280;57489;37.404;24.920;2024-02-21T04:18:28;100925.97;;;17.29
70123;BMP280;57489;37.404;24.920;2024-02-21T04:23:30;100925.44;;;17.27
70123;BMP280;57489;37.404;24.920;2024-02-21T04:28:32;100922.78;;;17.27
70123;BMP280;57489;37.404;24.920;2024-02-21T04:33:35;100921.22;;;17.26
70123;BMP280;57489;37.404;24.920;2024-02-21T04:38:37;100926.00;;;17.24
70123;BMP280;57489;37.404;24.920;2024-02-21T04:43:39;100919.69;;;17.20
70123;BMP280;57489;37.404;24.920;2024-02-21T04:48:43;100917.03;;;17.20
70123;BMP280;57489;37.404;24.920;2024-02-21T04:53:45;100919.69;;;17.20
70123;BMP280;57489;37.404;24.920;2024-02-21T04:58:46;100920.22;;;17.17
70123;BMP280;57489;37.404;24.920;2024-02-21T05:03:50;100913.91;;;17.13
70123;BMP280;57489;37.404;24.920;2024-02-21T05:08:52;100919.72;;;17.15
70123;BMP280;57489;37.404;24.920;2024-02-21T05:13:55;100924.00;;;17.16
70123;BMP280;57489;37.404;24.920;2024-02-21T05:18:59;100923.69;;;17.41
70123;BMP280;57489;37.404;24.920;2024-02-21T05:24:01;100929.03;;;17.65
70123;BMP280;57489;37.404;24.920;2024-02-21T05:29:03;100941.13;;;17.52
70123;BMP280;57489;37.404;24.920;2024-02-21T05:34:06;100945.28;;;17.59
70123;BMP280;57489;37.404;24.920;2024-02-21T05:39:09;100950.41;;;17.79
70123;BMP280;57489;37.404;24.920;2024-02-21T05:44:11;100960.19;;;17.78
70123;BMP280;57489;37.404;24.920;2024-02-21T05:49:15;100969.00;;;17.98
70123;BMP280;57489;37.404;24.920;2024-02-21T05:54:16;100970.00;;;18.02
70123;BMP280;57489;37.404;24.920;2024-02-21T05:59:18;100976.34;;;18.06
70123;BMP280;57489;37.404;24.920;2024-02-21T06:04:22;100981.28;;;18.13
70123;BMP280;57489;37.404;24.920;2024-02-21T06:09:24;100976.22;;;18.16
70123;BMP280;57489;37.404;24.920;2024-02-21T06:14:26;100980.59;;;18.26
70123;BMP280;57489;37.404;24.920;2024-02-21T06:19:29;100985.34;;;18.29
70123;BMP280;57489;37.404;24.920;2024-02-21T06:24:32;101001.38;;;18.43
70123;BMP280;57489;37.404;24.920;2024-02-21T06:29:34;100988.44;;;18.55
70123;BMP280;57489;37.404;24.920;2024-02-21T06:34:37;100993.97;;;18.58
70123;BMP280;57489;37.404;24.920;2024-02-21T06:39:39;101000.28;;;18.63
70123;BMP280;57489;37.404;24.920;2024-02-21T06:44:41;100998.47;;;18.77
70123;BMP280;57489;37.404;24.920;2024-02-21T06:49:48;101005.81;;;18.85
70123;BMP280;57489;37.404;24.920;2024-02-21T06:54:50;101001.00;;;18.87
70123;BMP280;57489;37.404;24.920;2024-02-21T06:59:52;101009.69;;;18.93
70123;BMP280;57489;37.404;24.920;2024-02-21T07:04:55;101015.22;;;18.96
70123;BMP280;57489;37.404;24.920;2024-02-21T07:09:57;101018.38;;;18.98
70123;BMP280;57489;37.404;24.920;2024-02-21T07:15:00;101030.25;;;18.87
70123;BMP280;57489;37.404;24.920;2024-02-21T07:20:05;101030.00;;;19.02
70123;BMP280;57489;37.404;24.920;2024-02-21T07:25:07;101033.00;;;19.15
70123;BMP280;57489;37.404;24.920;2024-02-21T07:30:10;101034.91;;;19.28
70123;BMP280;57489;37.404;24.920;2024-02-21T07:35:13;101037.41;;;19.38
70123;BMP280;57489;37.404;24.920;2024-02-21T07:40:16;101037.91;;;19.40
70123;BMP280;57489;37.404;24.920;2024-02-21T07:45:18;101040.38;;;19.50
70123;BMP280;57489;37.404;24.920;2024-02-21T07:50:24;101042.78;;;19.66
70123;BMP280;57489;37.404;24.920;2024-02-21T07:55:26;101048.69;;;19.62
70123;BMP280;57489;37.404;24.920;2024-02-21T08:00:29;101045.16;;;19.21
70123;BMP280;57489;37.404;24.920;2024-02-21T08:05:34;101045.84;;;19.26
70123;BMP280;57489;37.404;24.920;2024-02-21T08:10:36;101050.63;;;19.43
70123;BMP280;57489;37.404;24.920;2024-02-21T08:15:38;101050.47;;;19.67
70123;BMP280;57489;37.404;24.920;2024-02-21T08:20:43;101053.13;;;19.81
70123;BMP280;57489;37.404;24.920;2024-02-21T08:25:45;101054.38;;;19.42
70123;BMP280;57489;37.404;24.920;2024-02-21T08:30:47;101063.34;;;19.46
70123;BMP280;57489;37.404;24.920;2024-02-21T08:35:51;101073.97;;;19.14
70123;BMP280;57489;37.404;24.920;2024-02-21T08:40:53;101082.94;;;18.85
70123;BMP280;57489;37.404;24.920;2024-02-21T08:45:55;101078.78;;;18.98
70123;BMP280;57489;37.404;24.920;2024-02-21T08:50:58;101083.16;;;18.70
70123;BMP280;57489;37.404;24.920;2024-02-21T08:56:00;101087.97;;;19.05
70123;BMP280;57489;37.404;24.920;2024-02-21T09:01:02;101084.91;;;19.31
70123;BMP280;57489;37.404;24.920;2024-02-21T09:06:07;101103.50;;;18.98
70123;BMP280;57489;37.404;24.920;2024-02-21T09:11:10;101105.78;;;18.86
70123;BMP280;57489;37.404;24.920;2024-02-21T09:16:12;101115.63;;;19.04
70123;BMP280;57489;37.404;24.920;2024-02-21T09:21:15;101109.94;;;19.30
70123;BMP280;57489;37.404;24.920;2024-02-21T09:26:17;101108.41;;;19.24
70123;BMP280;57489;37.404;24.920;2024-02-21T09:31:19;101107.88;;;19.41
70123;BMP280;57489;37.404;24.920;2024-02-21T09:36:22;101110.50;;;19.27
70123;BMP280;57489;37.404;24.920;2024-02-21T09:41:25;101113.56;;;19.01
70123;BMP280;57489;37.404;24.920;2024-02-21T09:46:37;101113.28;;;19.03
70123;BMP280;57489;37.404;24.920;2024-02-21T09:51:45;101119.41;;;19.36
70123;BMP280;57489;37.404;24.920;2024-02-21T09:56:48;101112.44;;;19.40
70123;BMP280;57489;37.404;24.920;2024-02-21T10:01:50;101104.19;;;19.55
70123;BMP280;57489;37.404;24.920;2024-02-21T10:06:53;101115.44;;;19.52
70123;BMP280;57489;37.404;24.920;2024-02-21T10:11:56;101110.19;;;19.47
70123;BMP280;57489;37.404;24.920;2024-02-21T10:16:58;101106.56;;;19.57
70123;BMP280;57489;37.404;24.920;2024-02-21T10:22:03;101100.19;;;19.72
70123;BMP280;57489;37.404;24.920;2024-02-21T10:27:07;101098.91;;;19.69
70123;BMP280;57489;37.404;24.920;2024-02-21T10:32:11;101094.47;;;19.92
70123;BMP280;57489;37.404;24.920;2024-02-21T10:37:15;101081.75;;;19.89
70123;BMP280;57489;37.404;24.920;2024-02-21T10:42:21;101077.59;;;19.97
70123;BMP280;57489;37.404;24.920;2024-02-21T10:47:23;101090.44;;;19.81
70123;BMP280;57489;37.404;24.920;2024-02-21T10:52:35;101081.66;;;19.67
70123;BMP280;57489;37.404;24.920;2024-02-21T10:57:40;101078.66;;;19.54
70123;BMP280;57489;37.404;24.920;2024-02-21T11:02:42;101075.84;;;19.46
70123;BMP280;57489;37.404;24.920;2024-02-21T11:07:45;101063.69;;;19.86
70123;BMP280;57489;37.404;24.920;2024-02-21T11:12:48;101069.63;;;19.97
70123;BMP280;57489;37.404;24.920;2024-02-21T11:17:54;101059.34;;;20.04
70123;BMP280;57489;37.404;24.920;2024-02-21T11:22:57;101051.09;;;20.05
70123;BMP280;57489;37.404;24.920;2024-02-21T11:28:00;101045.03;;;20.13
70123;BMP280;57489;37.404;24.920;2024-02-21T11:33:05;101043.97;;;20.14
70123;BMP280;57489;37.404;24.920;2024-02-21T11:38:10;101042.66;;;20.26
70123;BMP280;57489;37.404;24.920;2024-02-21T11:43:15;101037.72;;;20.19
70123;BMP280;57489;37.404;24.920;2024-02-21T11:48:17;101035.97;;;20.14
70123;BMP280;57489;37.404;24.920;2024-02-21T11:53:23;101037.56;;;20.15
70123;BMP280;57489;37.404;24.920;2024-02-21T11:58:25;101028.16;;;20.04
70123;BMP280;57489;37.404;24.920;2024-02-21T12:03:27;101021.06;;;19.86
70123;BMP280;57489;37.404;24.920;2024-02-21T12:08:42;101020.50;;;19.61
70123;BMP280;57489;37.404;24.920;2024-02-21T12:13:44;101015.34;;;19.51
70123;BMP280;57489;37.404;24.920;2024-02-21T12:18:46;101015.19;;;19.29
70123;BMP280;57489;37.404;24.920;2024-02-21T12:23:49;101021.34;;;19.29
70123;BMP280;57489;37.404;24.920;2024-02-21T12:28:51;101011.72;;;19.15
70123;BMP280;57489;37.404;24.920;2024-02-21T12:33:53;101009.56;;;19.17
70123;BMP280;57489;37.404;24.920;2024-02-21T12:38:57;101014.72;;;19.27
70123;BMP280;57489;37.404;24.920;2024-02-21T12:43:59;101017.28;;;19.46
70123;BMP280;57489;37.404;24.920;2024-02-21T12:49:01;101019.16;;;19.45
70123;BMP280;57489;37.404;24.920;2024-02-21T12:54:04;101013.97;;;19.40
70123;BMP280;57489;37.404;24.920;2024-02-21T12:59:06;101020.84;;;19.41
70123;BMP280;57489;37.404;24.920;2024-02-21T13:04:09;101020.72;;;19.93
70123;BMP280;57489;37.404;24.920;2024-02-21T13:09:13;101018.22;;;19.82
70123;BMP280;57489;37.404;24.920;2024-02-21T13:14:15;101018.03;;;19.51
70123;BMP280;57489;37.404;24.920;2024-02-21T13:19:17;101012.84;;;19.41
70123;BMP280;57489;37.404;24.920;2024-02-21T13:24:21;101015.50;;;19.41
70123;BMP280;57489;37.404;24.920;2024-02-21T13:29:23;101013.97;;;19.40
70123;BMP280;57489;37.404;24.920;2024-02-21T13:34:25;101009.78;;;19.34
70123;BMP280;57489;37.404;24.920;2024-02-21T13:39:28;100999.13;;;19.20
70123;BMP280;57489;37.404;24.920;2024-02-21T13:44:30;100994.44;;;18.98
70123;BMP280;57489;37.404;24.920;2024-02-21T13:49:32;100993.94;;;18.96
70123;BMP280;57489;37.404;24.920;2024-02-21T13:54:36;100995.31;;;18.94
70123;BMP280;57489;37.404;24.920;2024-02-21T13:59:38;101000.41;;;18.90
70123;BMP280;57489;37.404;24.920;2024-02-21T14:04:40;100996.69;;;18.91
70123;BMP280;57489;37.404;24.920;2024-02-21T14:09:44;100989.28;;;18.88
70123;BMP280;57489;37.404;24.920;2024-02-21T14:14:46;100993.59;;;18.84
70123;BMP280;57489;37.404;24.920;2024-02-21T14:19:48;100986.41;;;18.84
70123;BMP280;57489;37.404;24.920;2024-02-21T14:24:51;100991.53;;;18.81
70123;BMP280;57489;37.404;24.920;2024-02-21T14:29:53;100999.97;;;18.83
70123;BMP280;57489;37.404;24.920;2024-02-21T14:34:55;100992.06;;;19.43
70123;BMP280;57489;37.404;24.920;2024-02-21T14:39:58;100995.22;;;19.73
70123;BMP280;57489;37.404;24.920;2024-02-21T14:45:01;100994.63;;;19.89
70123;BMP280;57489;37.404;24.920;2024-02-21T14:50:06;100995.50;;;19.99
70123;BMP280;57489;37.404;24.920;2024-02-21T14:55:10;100996.72;;;20.29
70123;BMP280;57489;37.404;24.920;2024-02-21T15:00:13;101000.97;;;20.66
70123;BMP280;57489;37.404;24.920;2024-02-21T15:05:16;101001.16;;;20.92
70123;BMP280;57489;37.404;24.920;2024-02-21T15:10:19;101001.78;;;20.98
70123;BMP280;57489;37.404;24.920;2024-02-21T15:15:21;101011.22;;;20.95
70123;BMP280;57489;37.404;24.920;2024-02-21T15:20:23;101006.00;;;20.90
70123;BMP280;57489;37.404;24.920;2024-02-21T15:25:26;101005.66;;;20.83
70123;BMP280;57489;37.404;24.920;2024-02-21T15:30:28;101005.25;;;20.76
70123;BMP280;57489;37.404;24.920;2024-02-21T15:35:32;101003.31;;;20.67
70123;BMP280;57489;37.404;24.920;2024-02-21T15:40:35;101002.78;;;20.57
70123;BMP280;57489;37.404;24.920;2024-02-21T15:45:37;101000.66;;;20.45
70123;BMP280;57489;37.404;24.920;2024-02-21T15:50:40;101009.97;;;20.34
70123;BMP280;57489;37.404;24.920;2024-02-21T15:55:43;101015.38;;;20.29
70123;BMP280;57489;37.404;24.920;2024-02-21T16:00:46;101014.72;;;20.23
70123;BMP280;57489;37.404;24.920;2024-02-21T16:05:48;101010.59;;;20.17
70123;BMP280;57489;37.404;24.920;2024-02-21T16:10:51;101012.78;;;20.01
70123;BMP280;57489;37.404;24.920;2024-02-21T16:15:53;101011.41;;;19.90
70123;BMP280;57489;37.404;24.920;2024-02-21T16:20:55;101018.41;;;19.86
70123;BMP280;57489;37.404;24.920;2024-02-21T16:25:58;101021.69;;;19.83
70123;BMP280;57489;37.404;24.920;2024-02-21T16:31:01;101026.13;;;19.74
70123;BMP280;57489;37.404;24.920;2024-02-21T16:36:04;101027.59;;;19.66
70123;BMP280;57489;37.404;24.920;2024-02-21T16:41:09;101031.50;;;19.55
70123;BMP280;57489;37.404;24.920;2024-02-21T16:46:11;101033.88;;;19.43
70123;BMP280;57489;37.404;24.920;2024-02-21T16:51:13;101031.69;;;19.31
70123;BMP280;57489;37.404;24.920;2024-02-21T16:56:16;101036.91;;;19.22
70123;BMP280;57489;37.404;24.920;2024-02-21T17:01:20;101037.34;;;19.10
70123;BMP280;57489;37.404;24.920;2024-02-21T17:06:22;101041.91;;;19.24
70123;BMP280;57489;37.404;24.920;2024-02-21T17:11:26;101042.38;;;19.58
70123;BMP280;57489;37.404;24.920;2024-02-21T17:16:28;101043.56;;;20.07
70123;BMP280;57489;37.404;24.920;2024-02-21T17:21:29;101047.59;;;20.55
70123;BMP280;57489;37.404;24.920;2024-02-21T17:26:33;101044.41;;;20.89
70123;BMP280;57489;37.404;24.920;2024-02-21T17:31:35;101051.75;;;21.06
70123;BMP280;57489;37.404;24.920;2024-02-21T17:36:37;101050.97;;;21.05
70123;BMP280;57489;37.404;24.920;2024-02-21T17:41:41;101055.72;;;21.08
70123;BMP280;57489;37.404;24.920;2024-02-21T17:46:43;101051.75;;;21.06
70123;BMP280;57489;37.404;24.920;2024-02-21T17:51:45;101057.47;;;20.90
70123;BMP280;57489;37.404;24.920;2024-02-21T17:56:48;101050.50;;;20.81
70123;BMP280;57489;37.404;24.920;2024-02-21T18:01:50;101052.78;;;20.74
70123;BMP280;57489;37.404;24.920;2024-02-21T18:06:52;101055.09;;;20.66
70123;BMP280;57489;37.404;24.920;2024-02-21T18:11:55;101050.34;;;20.63
70123;BMP280;57489;37.404;24.920;2024-02-21T18:16:58;101043.56;;;20.57
70123;BMP280;57489;37.404;24.920;2024-02-21T18:22:00;101048.13;;;20.79
70123;BMP280;57489;37.404;24.920;2024-02-21T18:27:04;101057.59;;;20.85
70123;BMP280;57489;37.404;24.920;2024-02-21T18:32:07;101057.59;;;20.85
70123;BMP280;57489;37.404;24.920;2024-02-21T18:37:09;101051.69;;;20.75
70123;BMP280;57489;37.404;24.920;2024-02-21T18:42:13;101055.34;;;20.79
70123;BMP280;57489;37.404;24.920;2024-02-21T18:47:15;101049.50;;;20.77
70123;BMP280;57489;37.404;24.920;2024-02-21T18:52:17;101044.97;;;20.77
70123;BMP280;57489;37.404;24.920;2024-02-21T18:57:20;101047.56;;;20.68
70123;BMP280;57489;37.404;24.920;2024-02-21T19:02:22;101047.69;;;20.63
70123;BMP280;57489;37.404;24.920;2024-02-21T19:07:24;101056.13;;;20.43
70123;BMP280;57489;37.404;24.920;2024-02-21T19:12:28;101053.56;;;20.38
70123;BMP280;57489;37.404;24.920;2024-02-21T19:17:31;101054.47;;;20.33
70123;BMP280;57489;37.404;24.920;2024-02-21T19:22:33;101048.94;;;20.43
70123;BMP280;57489;37.404;24.920;2024-02-21T19:27:37;101043.91;;;20.42
70123;BMP280;57489;37.404;24.920;2024-02-21T19:32:39;101044.50;;;20.39
70123;BMP280;57489;37.404;24.920;2024-02-21T19:37:41;101045.09;;;20.36
70123;BMP280;57489;37.404;24.920;2024-02-21T19:42:44;101052.03;;;20.37
70123;BMP280;57489;37.404;24.920;2024-02-21T19:47:49;101051.63;;;20.30
70123;BMP280;57489;37.404;24.920;2024-02-21T19:52:51;101057.75;;;20.30
70123;BMP280;57489;37.404;24.920;2024-02-21T19:57:57;101056.22;;;20.15
70123;BMP280;57489;37.404;24.920;2024-02-21T20:02:59;101057.09;;;20.11
70123;BMP280;57489;37.404;24.920;2024-02-21T20:08:04;101060.50;;;20.11
70123;BMP280;57489;37.404;24.920;2024-02-21T20:13:08;101058.63;;;20.26
70123;BMP280;57489;37.404;24.920;2024-02-21T20:18:10;101049.31;;;20.14
70123;BMP280;57489;37.404;24.920;2024-02-21T20:23:13;101055.41;;;20.15
70123;BMP280;57489;37.404;24.920;2024-02-21T20:28:17;101047.19;;;20.11
70123;BMP280;57489;37.404;24.920;2024-02-21T20:33:22;101048.97;;;20.16
70123;BMP280;57489;37.404;24.920;2024-02-21T20:38:26;101046.72;;;20.09
70123;BMP280;57489;37.404;24.920;2024-02-21T20:43:29;101047.53;;;20.10
70123;BMP280;57489;37.404;24.920;2024-02-21T20:48:31;101042.19;;;19.96
70123;BMP280;57489;37.404;24.920;2024-02-21T20:53:33;101040.63;;;19.95
70123;BMP280;57489;37.404;24.920;2024-02-21T20:58:36;101043.56;;;19.80
70123;BMP280;57489;37.404;24.920;2024-02-21T21:03:38;101046.91;;;19.99
70123;BMP280;57489;37.404;24.920;2024-02-21T21:08:41;101049.66;;;19.94
70123;BMP280;57489;37.404;24.920;2024-02-21T21:13:45;101050.00;;;19.93
70123;BMP280;57489;37.404;24.920;2024-02-21T21:18:46;101047.88;;;19.89
70123;BMP280;57489;37.404;24.920;2024-02-21T21:23:48;101044.06;;;19.82
70123;BMP280;57489;37.404;24.920;2024-02-21T21:28:52;101040.13;;;19.93
70123;BMP280;57489;37.404;24.920;2024-02-21T21:33:57;101045.94;;;20.23
70123;BMP280;57489;37.404;24.920;2024-02-21T21:38:59;101047.44;;;20.51
70123;BMP280;57489;37.404;24.920;2024-02-21T21:44:02;101046.81;;;20.90
70123;BMP280;57489;37.404;24.920;2024-02-21T21:49:04;101043.47;;;21.07
70123;BMP280;57489;37.404;24.920;2024-02-21T21:54:06;101034.69;;;21.15
70123;BMP280;57489;37.404;24.920;2024-02-21T21:59:09;101036.53;;;21.06
70123;BMP280;57489;37.404;24.920;2024-02-21T22:04:12;101040.44;;;21.09
70123;BMP280;57489;37.404;24.920;2024-02-21T22:09:14;101035.25;;;21.04
70123;BMP280;57489;37.404;24.920;2024-02-21T22:14:17;101034.44;;;20.94
70123;BMP280;57489;37.404;24.920;2024-02-21T22:19:19;101033.28;;;20.87
70123;BMP280;57489;37.404;24.920;2024-02-21T22:24:21;101035.47;;;20.85
70123;BMP280;57489;37.404;24.920;2024-02-21T22:29:24;101027.56;;;20.80
70123;BMP280;57489;37.404;24.920;2024-02-21T22:34:27;101028.78;;;20.74
70123;BMP280;57489;37.404;24.920;2024-02-21T22:39:29;101025.84;;;20.75
70123;BMP280;57489;37.404;24.920;2024-02-21T22:44:33;101025.69;;;20.58
70123;BMP280;57489;37.404;24.920;2024-02-21T22:49:35;101029.56;;;20.15
70123;BMP280;57489;37.404;24.920;2024-02-21T22:54:37;101026.09;;;20.01
70123;BMP280;57489;37.404;24.920;2024-02-21T22:59:41;101022.06;;;19.90
70123;BMP280;57489;37.404;24.920;2024-02-21T23:04:43;101022.28;;;19.80
70123;BMP280;57489;37.404;24.920;2024-02-21T23:09:45;101017.13;;;19.70
70123;BMP280;57489;37.404;24.920;2024-02-21T23:14:48;101018.91;;;19.60
70123;BMP280;57489;37.404;24.920;2024-02-21T23:19:50;101010.03;;;19.51
70123;BMP280;57489;37.404;24.920;2024-02-21T23:24:52;101012.31;;;19.44
70123;BMP280;57489;37.404;24.920;2024-02-21T23:29:58;101006.56;;;19.37
70123;BMP280;57489;37.404;24.920;2024-02-21T23:35:00;101010.38;;;19.31
70123;BMP280;57489;37.404;24.920;2024-02-21T23:40:02;101007.31;;;19.24
70123;BMP280;57489;37.404;24.920;2024-02-21T23:45:06;101005.84;;;19.18
70123;BMP280;57489;37.404;24.920;2024-02-21T23:50:11;101005.84;;;19.18
70123;BMP280;57489;37.404;24.920;2024-02-21T23:55:13;101002.94;;;19.14
